Time;durP1;ratioP1;P1;durP2;ratioP2;P2;SDS_P1;SDS_P2;PMS_P1;PMS_P2;Temp;Humidity;BMP_temperature;BMP_pressure;BME280_temperature;BME280_humidity;BME280_pressure;Samples;Min_cycle;Max_cycle;Signal;HPM_P1;HPM_P2
2022/01/27 00:05:26;;;;;;;;;55.50;43.50;;;;;;;;5092337;27;45325;-65
2022/01/27 00:08:13;;;;;;;;;53.25;43.50;;;;;;;;5087675;27;45810;-66
2022/01/27 00:13:16;;;;;;;;;58.75;46.75;;;;;;;;5086047;27;45807;-65
2022/01/27 00:15:42;;;;;;;;;53.25;44.00;;;;;;;;5068453;27;45442;-65
2022/01/27 00:18:30;;;;;;;;;40.50;31.75;;;;;;;;5069594;28;47667;-65
2022/01/27 00:20:53;;;;;;;;;47.25;39.75;;;;;;;;5069140;27;45427;-65
2022/01/27 00:23:19;;;;;;;;;47.75;39.25;;;;;;;;5081001;27;45528;-65
2022/01/27 00:25:44;;;;;;;;;54.00;45.75;;;;;;;;5088028;27;45462;-65
2022/01/27 00:28:09;;;;;;;;;54.50;45.75;;;;;;;;5070159;28;46264;-65
2022/01/27 00:30:36;;;;;;;;;49.75;43.00;;;;;;;;5089021;27;45415;-64
2022/01/27 00:33:03;;;;;;;;;48.75;42.75;;;;;;;;5092141;27;45411;-65
2022/01/27 00:35:28;;;;;;;;;56.75;45.00;;;;;;;;5086248;27;45524;-66
2022/01/27 00:37:53;;;;;;;;;52.25;44.75;;;;;;;;5061256;28;46200;-65
2022/01/27 00:40:19;;;;;;;;;54.75;44.00;;;;;;;;5086772;27;45449;-65
2022/01/27 00:42:45;;;;;;;;;55.50;45.00;;;;;;;;5083784;27;45732;-64
2022/01/27 00:45:10;;;;;;;;;54.50;44.00;;;;;;;;5089341;27;45772;-65
2022/01/27 00:47:36;;;;;;;;;62.50;46.50;;;;;;;;5067023;27;47240;-66
2022/01/27 00:50:01;;;;;;;;;55.25;42.75;;;;;;;;5088971;27;45540;-65
2022/01/27 00:52:40;;;;;;;;;60.75;47.25;;;;;;;;5060004;27;45622;-65
2022/01/27 00:55:07;;;;;;;;;55.50;45.75;;;;;;;;5091584;27;45406;-65
2022/01/27 00:57:51;;;;;;;;;52.25;42.75;;;;;;;;5073641;27;47817;-65
2022/01/27 01:00:22;;;;;;;;;57.25;46.00;;;;;;;;5090563;27;45444;-66
2022/01/27 01:11:16;;;;;;;;;56.50;45.00;;;;;;;;5035832;28;45429;-65
2022/01/27 01:15:58;;;;;;;;;50.00;41.25;;;;;;;;5044499;28;45519;-64
2022/01/27 01:37:03;;;;;;;;;50.75;42.75;;;;;;;;5039808;28;45419;-65
2022/01/27 01:39:30;;;;;;;;;48.50;41.75;;;;;;;;5074000;27;46431;-67
2022/01/27 01:41:56;;;;;;;;;48.25;38.75;;;;;;;;5096291;27;45414;-66
2022/01/27 01:44:22;;;;;;;;;51.50;42.50;;;;;;;;5094674;27;45602;-66
2022/01/27 01:46:47;;;;;;;;;48.75;42.75;;;;;;;;5069838;27;45397;-65
2022/01/27 01:49:12;;;;;;;;;48.75;38.00;;;;;;;;5093588;27;46368;-67
2022/01/27 01:51:39;;;;;;;;;52.75;45.50;;;;;;;;5073415;27;46062;-65
2022/01/27 01:54:05;;;;;;;;;47.50;40.75;;;;;;;;5095461;27;45490;-66
2022/01/27 01:56:30;;;;;;;;;59.25;44.50;;;;;;;;5081842;27;45610;-65
2022/01/27 01:58:56;;;;;;;;;52.00;43.25;;;;;;;;5089358;27;46915;-65
2022/01/27 02:01:21;;;;;;;;;44.75;38.50;;;;;;;;5089552;27;45424;-64
2022/01/27 02:03:47;;;;;;;;;50.50;38.75;;;;;;;;5087289;27;45379;-66
2022/01/27 02:06:20;;;;;;;;;54.25;43.75;;;;;;;;5077187;27;45313;-66
2022/01/27 02:19:40;;;;;;;;;52.75;42.00;;;;;;;;5093221;27;45386;-65
2022/01/27 02:22:05;;;;;;;;;58.00;46.00;;;;;;;;5093756;27;45398;-65
2022/01/27 02:24:32;;;;;;;;;63.75;49.75;;;;;;;;5075426;27;45412;-66
2022/01/27 02:26:58;;;;;;;;;57.00;46.25;;;;;;;;5076833;27;45296;-65
2022/01/27 02:29:23;;;;;;;;;55.50;43.75;;;;;;;;5069762;27;45647;-66
2022/01/27 02:31:49;;;;;;;;;51.75;43.25;;;;;;;;5089751;27;45564;-66
2022/01/27 02:34:15;;;;;;;;;53.50;42.00;;;;;;;;5066414;28;45404;-64
2022/01/27 02:36:40;;;;;;;;;51.50;42.75;;;;;;;;5092513;27;45378;-66
2022/01/27 02:39:07;;;;;;;;;57.00;45.25;;;;;;;;5093749;27;46312;-65
2022/01/27 02:41:41;;;;;;;;;55.50;45.50;;;;;;;;5072217;27;45422;-66
2022/01/27 02:44:06;;;;;;;;;55.25;44.00;;;;;;;;5068872;27;45632;-65
2022/01/27 02:46:36;;;;;;;;;58.00;44.75;;;;;;;;5091486;27;45582;-65
2022/01/27 02:49:02;;;;;;;;;53.00;44.75;;;;;;;;5089835;27;46110;-65
2022/01/27 02:51:27;;;;;;;;;58.25;45.75;;;;;;;;5090038;27;45369;-65
2022/01/27 02:53:52;;;;;;;;;59.75;47.00;;;;;;;;5095864;27;45514;-66
2022/01/27 02:56:18;;;;;;;;;53.75;43.75;;;;;;;;5092672;27;45563;-65
2022/01/27 02:58:44;;;;;;;;;55.50;44.75;;;;;;;;5070715;27;48495;-65
2022/01/27 03:01:10;;;;;;;;;55.25;46.00;;;;;;;;5092445;27;45465;-65
2022/01/27 03:03:36;;;;;;;;;56.75;46.00;;;;;;;;5093098;27;45359;-65
2022/01/27 03:06:01;;;;;;;;;52.50;43.25;;;;;;;;5093825;27;45357;-65
2022/01/27 03:08:26;;;;;;;;;51.50;45.25;;;;;;;;5071120;27;46923;-66
2022/01/27 03:11:02;;;;;;;;;59.00;44.50;;;;;;;;5071129;27;45466;-65
2022/01/27 03:13:30;;;;;;;;;59.75;47.50;;;;;;;;5092913;27;45517;-65
2022/01/27 03:15:55;;;;;;;;;58.75;48.50;;;;;;;;5070183;28;45546;-66
2022/01/27 03:18:20;;;;;;;;;59.25;47.50;;;;;;;;5087567;27;45638;-65
2022/01/27 03:20:45;;;;;;;;;58.75;45.25;;;;;;;;5095735;27;45318;-65
2022/01/27 03:23:11;;;;;;;;;58.00;47.75;;;;;;;;5093293;27;47814;-65
2022/01/27 03:25:36;;;;;;;;;62.25;42.50;;;;;;;;5071593;27;45614;-66
2022/01/27 03:28:01;;;;;;;;;48.00;41.75;;;;;;;;5070063;28;48388;-65
2022/01/27 03:30:26;;;;;;;;;58.25;45.75;;;;;;;;5088805;27;45430;-66
2022/01/27 03:32:51;;;;;;;;;57.75;46.50;;;;;;;;5093446;27;45368;-66
2022/01/27 03:35:17;;;;;;;;;57.75;46.50;;;;;;;;5093013;27;45412;-66
2022/01/27 03:37:42;;;;;;;;;56.25;46.25;;;;;;;;5092449;27;46050;-65
2022/01/27 03:40:08;;;;;;;;;63.50;48.75;;;;;;;;5093088;27;45317;-65
2022/01/27 03:42:39;;;;;;;;;62.50;46.25;;;;;;;;5093573;27;45813;-64
2022/01/27 03:45:04;;;;;;;;;57.75;45.50;;;;;;;;5074801;27;46061;-64
2022/01/27 03:47:29;;;;;;;;;47.50;40.00;;;;;;;;5092098;27;45341;-65
2022/01/27 03:49:54;;;;;;;;;58.25;45.00;;;;;;;;5092519;27;45482;-65
2022/01/27 03:52:20;;;;;;;;;55.75;42.75;;;;;;;;5069060;28;45380;-66
2022/01/27 03:54:45;;;;;;;;;62.25;47.25;;;;;;;;5089958;27;45515;-65
2022/01/27 03:57:10;;;;;;;;;60.25;46.00;;;;;;;;5092610;27;46406;-65
2022/01/27 03:59:35;;;;;;;;;60.75;45.75;;;;;;;;5094238;27;45352;-64
2022/01/27 04:02:04;;;;;;;;;53.75;43.25;;;;;;;;5068994;27;45492;-65
2022/01/27 04:04:29;;;;;;;;;49.75;43.00;;;;;;;;5092674;27;45425;-65
2022/01/27 04:06:57;;;;;;;;;63.25;49.75;;;;;;;;5069207;28;45820;-65
2022/01/27 04:09:24;;;;;;;;;54.00;44.00;;;;;;;;5088883;27;45414;-65
2022/01/27 04:11:49;;;;;;;;;58.00;45.75;;;;;;;;5072236;27;45417;-66
2022/01/27 04:14:15;;;;;;;;;61.50;49.50;;;;;;;;5092684;27;45463;-66
2022/01/27 04:16:40;;;;;;;;;59.25;44.00;;;;;;;;5067379;27;47324;-66
2022/01/27 04:19:05;;;;;;;;;50.00;42.75;;;;;;;;5092169;27;45902;-66
2022/01/27 04:21:30;;;;;;;;;58.25;45.25;;;;;;;;5092503;27;45535;-66
2022/01/27 04:23:55;;;;;;;;;58.25;45.50;;;;;;;;5094379;27;45335;-66
2022/01/27 04:26:28;;;;;;;;;60.00;48.00;;;;;;;;5092413;27;46347;-66
2022/01/27 04:28:54;;;;;;;;;58.25;47.75;;;;;;;;5092156;27;45746;-65
2022/01/27 04:31:20;;;;;;;;;55.75;45.75;;;;;;;;5091070;27;45414;-64
2022/01/27 04:33:45;;;;;;;;;56.50;46.50;;;;;;;;5089355;27;45431;-65
2022/01/27 04:36:30;;;;;;;;;55.25;44.25;;;;;;;;5090737;27;45795;-65
2022/01/27 04:39:16;;;;;;;;;57.75;44.50;;;;;;;;5074580;27;46259;-64
2022/01/27 04:46:47;;;;;;;;;60.25;46.50;;;;;;;;5088356;27;46461;-64
2022/01/27 04:49:13;;;;;;;;;44.25;38.50;;;;;;;;5091872;27;45386;-65
2022/01/27 04:51:38;;;;;;;;;51.75;41.50;;;;;;;;5071805;27;45465;-65
2022/01/27 04:54:14;;;;;;;;;58.25;44.00;;;;;;;;5074640;27;45584;-65
2022/01/27 04:56:40;;;;;;;;;53.75;44.50;;;;;;;;5091555;27;46506;-65
2022/01/27 04:59:14;;;;;;;;;54.50;44.25;;;;;;;;5091791;27;45258;-65
2022/01/27 05:01:51;;;;;;;;;57.50;45.75;;;;;;;;5062883;27;45510;-65
2022/01/27 05:04:18;;;;;;;;;59.00;43.00;;;;;;;;5091972;27;45357;-65
2022/01/27 05:06:44;;;;;;;;;53.75;43.75;;;;;;;;5076494;27;46683;-64
2022/01/27 05:09:10;;;;;;;;;48.25;41.25;;;;;;;;5094091;27;45313;-65
2022/01/27 05:11:39;;;;;;;;;54.75;41.25;;;;;;;;5097434;27;45347;-65
2022/01/27 05:16:29;;;;;;;;;57.25;42.75;;;;;;;;5093198;27;45707;-66
2022/01/27 05:18:55;;;;;;;;;55.50;44.00;;;;;;;;5094899;27;45515;-65
2022/01/27 05:21:20;;;;;;;;;48.75;42.50;;;;;;;;5095440;27;45408;-66
2022/01/27 05:23:45;;;;;;;;;60.00;45.50;;;;;;;;5097256;27;45345;-64
2022/01/27 05:26:11;;;;;;;;;60.00;44.75;;;;;;;;5076190;27;46731;-65
2022/01/27 05:28:36;;;;;;;;;60.50;44.75;;;;;;;;5075307;27;45592;-65
2022/01/27 05:31:01;;;;;;;;;49.25;40.00;;;;;;;;5093248;27;45601;-65
2022/01/27 05:33:27;;;;;;;;;46.25;38.75;;;;;;;;5092892;27;45390;-65
2022/01/27 05:35:52;;;;;;;;;46.00;38.25;;;;;;;;5078387;27;46319;-64
2022/01/27 05:38:17;;;;;;;;;55.50;40.00;;;;;;;;5094758;27;45558;-65
2022/01/27 05:40:44;;;;;;;;;52.00;39.50;;;;;;;;5076057;27;45508;-64
2022/01/27 05:43:10;;;;;;;;;51.25;39.75;;;;;;;;5055921;27;45427;-64
2022/01/27 05:45:35;;;;;;;;;45.50;40.50;;;;;;;;5070262;27;48719;-65
2022/01/27 05:48:00;;;;;;;;;53.25;40.25;;;;;;;;5095183;27;45348;-65
2022/01/27 05:50:25;;;;;;;;;56.75;44.75;;;;;;;;5095673;27;45361;-65
2022/01/27 05:52:54;;;;;;;;;55.00;43.75;;;;;;;;5093582;27;45382;-64
2022/01/27 05:55:19;;;;;;;;;49.00;41.00;;;;;;;;5094790;27;45962;-65
2022/01/27 05:57:44;;;;;;;;;47.25;39.00;;;;;;;;5094843;27;45336;-65
2022/01/27 06:00:10;;;;;;;;;45.50;39.00;;;;;;;;5094346;27;45321;-66
2022/01/27 06:02:36;;;;;;;;;51.50;40.50;;;;;;;;5094749;27;45513;-65
2022/01/27 06:05:02;;;;;;;;;47.50;41.25;;;;;;;;5092881;27;45559;-65
2022/01/27 06:07:28;;;;;;;;;50.75;42.50;;;;;;;;5056555;28;46644;-65
2022/01/27 06:09:53;;;;;;;;;53.00;42.75;;;;;;;;5064082;27;45572;-64
2022/01/27 06:12:18;;;;;;;;;44.00;39.50;;;;;;;;5094865;27;45370;-64
2022/01/27 06:14:43;;;;;;;;;50.25;41.50;;;;;;;;5077359;27;46897;-65
2022/01/27 06:17:09;;;;;;;;;61.25;47.75;;;;;;;;5094197;27;45912;-65
2022/01/27 06:19:34;;;;;;;;;49.50;40.75;;;;;;;;5094777;27;45391;-65
2022/01/27 06:21:59;;;;;;;;;57.00;43.25;;;;;;;;5075111;27;45458;-65
2022/01/27 06:24:24;;;;;;;;;58.00;48.00;;;;;;;;5092968;27;45753;-66
2022/01/27 06:26:51;;;;;;;;;56.00;44.25;;;;;;;;5077758;27;45526;-65
2022/01/27 06:29:16;;;;;;;;;57.00;46.25;;;;;;;;5094043;27;45403;-65
2022/01/27 06:31:41;;;;;;;;;61.00;48.50;;;;;;;;5091984;27;45325;-63
2022/01/27 06:34:07;;;;;;;;;54.00;43.00;;;;;;;;5092025;27;45605;-65
2022/01/27 06:36:32;;;;;;;;;45.50;40.75;;;;;;;;5094074;27;45395;-65
2022/01/27 06:38:57;;;;;;;;;58.75;44.00;;;;;;;;5096119;27;45501;-65
2022/01/27 06:41:22;;;;;;;;;50.50;41.50;;;;;;;;5075238;27;45373;-65
2022/01/27 06:43:48;;;;;;;;;41.50;34.75;;;;;;;;5092492;27;45638;-65
2022/01/27 06:46:13;;;;;;;;;48.25;42.00;;;;;;;;5091096;27;45389;-65
2022/01/27 06:48:38;;;;;;;;;44.25;39.50;;;;;;;;5087287;27;45428;-66
2022/01/27 06:51:05;;;;;;;;;56.00;44.50;;;;;;;;5092669;27;45585;-65
2022/01/27 06:53:30;;;;;;;;;47.50;40.50;;;;;;;;5093503;27;45952;-65
2022/01/27 06:55:55;;;;;;;;;44.75;38.75;;;;;;;;5093799;27;45489;-65
2022/01/27 06:58:21;;;;;;;;;46.50;40.25;;;;;;;;5075588;27;45452;-65
2022/01/27 07:00:46;;;;;;;;;45.00;38.00;;;;;;;;5092187;27;45497;-66
2022/01/27 07:03:11;;;;;;;;;55.00;45.25;;;;;;;;5091710;27;47487;-65
2022/01/27 07:05:37;;;;;;;;;49.25;39.75;;;;;;;;5094995;27;45386;-66
2022/01/27 07:08:03;;;;;;;;;46.50;38.25;;;;;;;;5093175;27;45519;-66
2022/01/27 07:10:28;;;;;;;;;49.50;42.50;;;;;;;;5075365;27;45375;-66
2022/01/27 07:12:53;;;;;;;;;51.00;44.00;;;;;;;;5075340;27;46435;-66
2022/01/27 07:15:19;;;;;;;;;44.00;36.25;;;;;;;;5092212;27;45410;-66
2022/01/27 07:17:44;;;;;;;;;41.75;36.25;;;;;;;;5094647;27;45407;-66
2022/01/27 07:20:10;;;;;;;;;46.00;39.75;;;;;;;;5074559;27;45611;-66
2022/01/27 07:22:36;;;;;;;;;51.75;41.25;;;;;;;;5073583;27;46906;-65
2022/01/27 07:25:03;;;;;;;;;52.00;40.25;;;;;;;;5073713;27;45503;-64
2022/01/27 07:27:28;;;;;;;;;44.25;40.00;;;;;;;;5092690;27;45644;-64
2022/01/27 07:29:53;;;;;;;;;49.50;39.25;;;;;;;;5093983;27;45378;-65
2022/01/27 07:32:19;;;;;;;;;40.25;34.75;;;;;;;;5088868;27;45532;-65
2022/01/27 07:34:44;;;;;;;;;46.25;39.00;;;;;;;;5087754;27;45442;-64
2022/01/27 07:37:09;;;;;;;;;55.75;44.50;;;;;;;;5091240;27;47143;-65
2022/01/27 07:39:34;;;;;;;;;50.50;42.25;;;;;;;;5091692;27;45460;-65
2022/01/27 07:42:01;;;;;;;;;48.50;43.50;;;;;;;;5075771;27;47566;-66
2022/01/27 07:44:26;;;;;;;;;44.75;40.25;;;;;;;;5093301;27;45347;-65
2022/01/27 07:46:52;;;;;;;;;56.00;41.00;;;;;;;;5083960;27;45709;-64
2022/01/27 07:49:17;;;;;;;;;53.75;42.50;;;;;;;;5088709;27;47852;-65
2022/01/27 07:51:42;;;;;;;;;48.25;40.75;;;;;;;;5089449;27;46530;-65
2022/01/27 07:54:10;;;;;;;;;46.25;39.75;;;;;;;;5093479;27;45570;-65
2022/01/27 07:56:36;;;;;;;;;52.00;41.00;;;;;;;;5095043;27;45439;-65
2022/01/27 07:59:01;;;;;;;;;40.25;38.00;;;;;;;;5092566;27;45608;-67
2022/01/27 08:01:26;;;;;;;;;51.50;43.00;;;;;;;;5068923;27;48577;-65
2022/01/27 08:03:51;;;;;;;;;48.75;40.00;;;;;;;;5066435;27;46004;-66
2022/01/27 08:06:17;;;;;;;;;46.25;40.00;;;;;;;;5087359;27;45402;-66
2022/01/27 08:08:43;;;;;;;;;34.00;34.00;;;;;;;;5076261;27;45759;-66
2022/01/27 08:11:08;;;;;;;;;50.25;40.00;;;;;;;;5092372;27;46373;-66
2022/01/27 08:13:33;;;;;;;;;39.75;35.75;;;;;;;;5087001;27;45558;-67
2022/01/27 08:15:58;;;;;;;;;44.25;37.75;;;;;;;;5083508;27;45479;-65
2022/01/27 08:18:24;;;;;;;;;45.50;41.00;;;;;;;;5072595;27;45708;-65
2022/01/27 08:20:50;;;;;;;;;56.50;42.50;;;;;;;;5087876;27;45495;-64
2022/01/27 08:23:15;;;;;;;;;49.50;42.25;;;;;;;;5081570;27;45539;-65
2022/01/27 08:25:41;;;;;;;;;56.75;40.50;;;;;;;;5064354;27;45899;-65
2022/01/27 08:28:18;;;;;;;;;47.50;39.75;;;;;;;;5071765;27;45457;-64
2022/01/27 08:30:47;;;;;;;;;48.50;40.00;;;;;;;;5070306;27;48521;-64
2022/01/27 08:33:15;;;;;;;;;52.50;40.75;;;;;;;;5072584;27;45936;-65
2022/01/27 08:35:41;;;;;;;;;52.75;42.25;;;;;;;;5093464;27;45407;-64
2022/01/27 08:38:06;;;;;;;;;47.25;40.00;;;;;;;;5074467;27;45416;-65
2022/01/27 08:40:31;;;;;;;;;44.25;39.25;;;;;;;;5090086;27;46498;-65
2022/01/27 08:42:57;;;;;;;;;47.25;40.50;;;;;;;;5092946;27;45808;-65
2022/01/27 08:45:24;;;;;;;;;50.50;41.75;;;;;;;;5091865;27;45840;-65
2022/01/27 08:47:50;;;;;;;;;48.75;39.75;;;;;;;;5093471;27;45616;-64
2022/01/27 08:50:18;;;;;;;;;43.25;38.50;;;;;;;;5070619;28;46542;-64
2022/01/27 08:52:43;;;;;;;;;52.25;39.25;;;;;;;;5091773;27;45413;-64
2022/01/27 08:55:09;;;;;;;;;49.00;40.25;;;;;;;;5073981;27;45534;-64
2022/01/27 08:57:34;;;;;;;;;50.50;40.00;;;;;;;;5072065;27;45858;-66
2022/01/27 09:00:01;;;;;;;;;48.50;41.50;;;;;;;;5092807;27;45397;-64
2022/01/27 09:02:27;;;;;;;;;46.75;41.00;;;;;;;;5091480;27;45232;-64
2022/01/27 09:04:52;;;;;;;;;46.50;40.00;;;;;;;;5072679;27;45654;-64
2022/01/27 09:07:18;;;;;;;;;46.75;38.50;;;;;;;;5074053;27;45660;-65
2022/01/27 09:09:43;;;;;;;;;36.75;30.00;;;;;;;;5092517;27;46402;-64
2022/01/27 09:12:10;;;;;;;;;44.25;39.00;;;;;;;;5074884;27;46414;-64
2022/01/27 09:14:35;;;;;;;;;39.00;37.00;;;;;;;;5093786;27;45549;-64
2022/01/27 09:17:00;;;;;;;;;41.25;36.25;;;;;;;;5090279;27;45832;-64
2022/01/27 09:19:27;;;;;;;;;43.25;39.00;;;;;;;;5085392;27;46374;-65
2022/01/27 09:21:55;;;;;;;;;40.75;37.25;;;;;;;;5077901;27;45798;-64
2022/01/27 09:24:27;;;;;;;;;45.25;37.75;;;;;;;;5092466;27;45378;-64
2022/01/27 09:26:59;;;;;;;;;52.00;43.00;;;;;;;;5094648;27;45489;-64
2022/01/27 09:29:24;;;;;;;;;53.00;44.25;;;;;;;;5074136;27;47599;-65
2022/01/27 09:31:50;;;;;;;;;55.50;43.50;;;;;;;;5090862;27;45406;-64
2022/01/27 09:34:16;;;;;;;;;39.75;35.25;;;;;;;;5071136;27;45475;-64
2022/01/27 09:36:41;;;;;;;;;41.75;37.00;;;;;;;;5082345;27;45385;-64
2022/01/27 09:39:06;;;;;;;;;43.75;37.75;;;;;;;;5071581;27;47512;-63
2022/01/27 09:41:35;;;;;;;;;51.25;41.50;;;;;;;;5089996;27;45491;-64
2022/01/27 09:44:01;;;;;;;;;49.25;40.75;;;;;;;;5071948;27;45940;-65
2022/01/27 09:46:27;;;;;;;;;48.00;41.75;;;;;;;;5069849;27;45326;-64
2022/01/27 09:48:53;;;;;;;;;51.50;42.25;;;;;;;;5091505;27;45405;-64
2022/01/27 09:53:47;;;;;;;;;44.75;38.50;;;;;;;;5097780;27;45386;-64
2022/01/27 09:56:12;;;;;;;;;50.75;42.25;;;;;;;;5095188;27;45502;-64
2022/01/27 09:58:38;;;;;;;;;37.25;36.25;;;;;;;;5093826;27;46530;-64
2022/01/27 10:01:04;;;;;;;;;55.25;43.75;;;;;;;;5093922;27;45429;-64
2022/01/27 10:03:30;;;;;;;;;50.50;38.25;;;;;;;;5075833;27;45853;-65
2022/01/27 10:06:08;;;;;;;;;51.00;41.00;;;;;;;;5078860;27;45483;-64
2022/01/27 10:08:34;;;;;;;;;43.00;38.25;;;;;;;;5096671;27;45822;-64
2022/01/27 10:11:11;;;;;;;;;52.50;43.50;;;;;;;;5094550;27;45362;-64
2022/01/27 10:13:40;;;;;;;;;47.50;36.00;;;;;;;;5077040;27;45237;-64
2022/01/27 10:16:07;;;;;;;;;42.75;36.50;;;;;;;;5093806;27;45447;-65
2022/01/27 10:18:35;;;;;;;;;47.75;39.75;;;;;;;;5098670;27;45380;-65
2022/01/27 10:21:04;;;;;;;;;37.75;36.00;;;;;;;;5094813;27;45387;-64
2022/01/27 10:23:33;;;;;;;;;47.50;37.75;;;;;;;;5095768;27;45440;-64
2022/01/27 10:26:08;;;;;;;;;35.00;32.75;;;;;;;;5092356;27;45534;-64
2022/01/27 10:28:50;;;;;;;;;40.50;37.75;;;;;;;;5076559;27;47551;-65
2022/01/27 10:31:20;;;;;;;;;44.50;36.50;;;;;;;;5090963;27;45367;-65
2022/01/27 10:34:01;;;;;;;;;52.50;40.75;;;;;;;;5094574;27;45510;-65
2022/01/27 10:36:26;;;;;;;;;40.50;36.75;;;;;;;;5065898;27;45473;-65
2022/01/27 10:38:53;;;;;;;;;42.75;38.25;;;;;;;;5095822;27;45648;-63
2022/01/27 10:41:20;;;;;;;;;45.25;36.00;;;;;;;;5095075;27;45506;-65
2022/01/27 10:43:45;;;;;;;;;40.50;36.50;;;;;;;;5094860;27;45398;-64
2022/01/27 10:46:20;;;;;;;;;38.25;34.00;;;;;;;;5092939;27;45395;-66
2022/01/27 10:48:54;;;;;;;;;45.50;36.75;;;;;;;;5080694;27;46252;-66
2022/01/27 10:51:33;;;;;;;;;49.00;40.00;;;;;;;;5094771;27;45531;-64
2022/01/27 10:54:08;;;;;;;;;41.25;36.75;;;;;;;;5070525;27;45380;-64
2022/01/27 10:56:38;;;;;;;;;38.50;31.75;;;;;;;;5096120;27;45551;-64
2022/01/27 10:59:04;;;;;;;;;48.50;40.25;;;;;;;;5094070;27;46284;-64
2022/01/27 11:01:31;;;;;;;;;54.50;41.75;;;;;;;;5092733;27;45375;-64
2022/01/27 11:03:57;;;;;;;;;41.25;38.50;;;;;;;;5060298;27;45424;-64
2022/01/27 11:06:25;;;;;;;;;52.00;42.00;;;;;;;;5094121;27;45531;-65
2022/01/27 11:08:54;;;;;;;;;45.00;37.50;;;;;;;;5096543;27;46575;-65
2022/01/27 11:11:21;;;;;;;;;46.50;39.00;;;;;;;;5092320;27;45685;-64
2022/01/27 11:13:46;;;;;;;;;57.00;41.50;;;;;;;;5075987;27;45409;-64
2022/01/27 11:16:15;;;;;;;;;45.75;39.25;;;;;;;;5092641;27;45368;-64
2022/01/27 11:18:41;;;;;;;;;44.50;39.00;;;;;;;;5075730;27;45693;-64
2022/01/27 11:21:13;;;;;;;;;58.00;46.25;;;;;;;;5095086;27;45443;-64
2022/01/27 11:26:06;;;;;;;;;60.00;47.25;;;;;;;;5094315;27;45589;-64
2022/01/27 11:28:32;;;;;;;;;49.25;39.50;;;;;;;;5091855;27;46397;-64
2022/01/27 11:31:16;;;;;;;;;53.75;41.50;;;;;;;;5091763;27;45600;-64
2022/01/27 11:33:43;;;;;;;;;50.25;42.50;;;;;;;;5059292;27;45551;-64
2022/01/27 11:36:12;;;;;;;;;45.50;36.50;;;;;;;;5076731;27;45660;-65
2022/01/27 11:38:45;;;;;;;;;52.25;43.25;;;;;;;;5075134;27;47462;-65
2022/01/27 11:41:29;;;;;;;;;43.00;38.00;;;;;;;;5094441;27;45288;-65
2022/01/27 11:44:13;;;;;;;;;47.50;40.50;;;;;;;;5086031;27;45268;-65
2022/01/27 11:46:38;;;;;;;;;34.00;30.75;;;;;;;;5091570;27;45835;-64
2022/01/27 11:49:03;;;;;;;;;50.25;43.00;;;;;;;;5092388;27;45750;-64
2022/01/27 11:51:29;;;;;;;;;54.75;42.75;;;;;;;;5074981;27;45668;-65
2022/01/27 11:53:56;;;;;;;;;47.25;41.25;;;;;;;;5057056;28;45345;-66
2022/01/27 11:56:24;;;;;;;;;50.00;39.50;;;;;;;;5093642;27;45320;-64
2022/01/27 11:59:08;;;;;;;;;43.50;38.50;;;;;;;;5093052;27;45818;-63
2022/01/27 12:01:37;;;;;;;;;45.00;37.75;;;;;;;;5079929;27;46865;-65
2022/01/27 12:04:04;;;;;;;;;31.75;27.00;;;;;;;;5092745;27;45398;-65
2022/01/27 12:06:32;;;;;;;;;39.75;35.25;;;;;;;;5094004;27;45463;-64
2022/01/27 12:09:16;;;;;;;;;43.50;37.25;;;;;;;;5095620;27;45771;-64
2022/01/27 12:11:47;;;;;;;;;45.00;40.00;;;;;;;;5093569;27;45459;-63
2022/01/27 12:14:14;;;;;;;;;41.25;37.00;;;;;;;;5092398;27;46136;-64
2022/01/27 12:16:54;;;;;;;;;47.00;40.50;;;;;;;;5090245;27;45610;-63
2022/01/27 12:19:19;;;;;;;;;47.75;38.50;;;;;;;;5092712;27;45837;-65
2022/01/27 12:21:51;;;;;;;;;47.00;40.00;;;;;;;;5093116;27;45491;-65
2022/01/27 12:26:50;;;;;;;;;48.25;38.00;;;;;;;;5093080;27;45541;-63
2022/01/27 12:29:22;;;;;;;;;41.00;35.00;;;;;;;;5071148;28;47771;-64
2022/01/27 12:31:48;;;;;;;;;33.75;33.75;;;;;;;;5087889;27;46081;-63
2022/01/27 12:34:13;;;;;;;;;46.50;38.25;;;;;;;;5064832;27;45393;-65
2022/01/27 12:36:38;;;;;;;;;46.00;39.50;;;;;;;;5092387;27;46205;-65
2022/01/27 12:39:03;;;;;;;;;44.25;38.75;;;;;;;;5074810;27;47731;-65
2022/01/27 12:41:35;;;;;;;;;51.75;40.25;;;;;;;;5074064;27;45835;-65
2022/01/27 12:44:10;;;;;;;;;34.00;30.50;;;;;;;;5073467;27;45460;-65
2022/01/27 12:46:36;;;;;;;;;45.25;38.00;;;;;;;;5071311;27;45372;-65
2022/01/27 12:49:02;;;;;;;;;51.75;41.75;;;;;;;;5051181;27;47351;-65
2022/01/27 12:51:27;;;;;;;;;39.25;33.00;;;;;;;;5091284;27;45482;-65
2022/01/27 12:53:59;;;;;;;;;46.75;38.25;;;;;;;;5075653;27;45392;-64
2022/01/27 12:56:24;;;;;;;;;36.50;34.50;;;;;;;;5073917;27;45797;-66
2022/01/27 12:58:50;;;;;;;;;38.75;35.25;;;;;;;;5091451;27;46745;-65
2022/01/27 13:01:16;;;;;;;;;39.50;37.00;;;;;;;;5090287;27;45538;-64
2022/01/27 13:03:58;;;;;;;;;49.25;41.00;;;;;;;;5090955;27;45587;-65
2022/01/27 13:06:27;;;;;;;;;53.00;40.50;;;;;;;;5071065;27;45549;-65
2022/01/27 13:09:08;;;;;;;;;37.75;35.75;;;;;;;;5074832;27;46411;-64
2022/01/27 13:11:34;;;;;;;;;38.00;34.25;;;;;;;;5092593;27;45594;-65
2022/01/27 13:14:09;;;;;;;;;50.25;39.25;;;;;;;;5090078;27;45442;-66
2022/01/27 13:16:41;;;;;;;;;44.00;37.25;;;;;;;;5089806;27;45546;-64
2022/01/27 13:19:16;;;;;;;;;33.75;33.50;;;;;;;;5072153;27;46516;-65
2022/01/27 13:21:43;;;;;;;;;43.25;36.25;;;;;;;;5091164;27;45395;-64
2022/01/27 13:24:14;;;;;;;;;41.50;35.00;;;;;;;;5073867;27;45420;-63
2022/01/27 13:26:44;;;;;;;;;38.50;36.50;;;;;;;;5092169;27;45550;-64
2022/01/27 13:29:09;;;;;;;;;47.00;38.00;;;;;;;;5094695;27;45841;-64
2022/01/27 13:31:34;;;;;;;;;44.00;37.50;;;;;;;;5073584;27;45674;-64
2022/01/27 13:34:03;;;;;;;;;50.00;39.00;;;;;;;;5094509;27;45560;-65
2022/01/27 13:36:29;;;;;;;;;44.25;34.75;;;;;;;;5078985;27;45448;-65
2022/01/27 13:39:01;;;;;;;;;41.25;36.00;;;;;;;;5097069;27;45667;-64
2022/01/27 13:41:31;;;;;;;;;28.75;25.50;;;;;;;;5093804;27;45441;-65
2022/01/27 13:44:04;;;;;;;;;39.25;35.00;;;;;;;;5069394;27;45699;-65
2022/01/27 13:46:32;;;;;;;;;43.75;34.50;;;;;;;;5092321;27;45437;-65
2022/01/27 13:49:03;;;;;;;;;37.50;34.00;;;;;;;;5074153;27;46649;-65
2022/01/27 13:51:28;;;;;;;;;35.25;31.75;;;;;;;;5060403;27;45833;-64
2022/01/27 13:54:12;;;;;;;;;39.50;36.25;;;;;;;;5096929;27;45357;-65
2022/01/27 13:56:40;;;;;;;;;36.00;33.00;;;;;;;;5096600;27;45394;-64
2022/01/27 13:59:11;;;;;;;;;49.50;39.25;;;;;;;;5075451;27;46651;-64
2022/01/27 14:01:36;;;;;;;;;39.75;33.25;;;;;;;;5092466;27;45615;-64
2022/01/27 14:04:01;;;;;;;;;35.50;32.00;;;;;;;;5073450;27;45835;-64
2022/01/27 14:06:27;;;;;;;;;44.25;36.75;;;;;;;;5093817;27;45491;-64
2022/01/27 14:08:57;;;;;;;;;41.75;34.75;;;;;;;;5087950;27;45633;-64
2022/01/27 14:11:35;;;;;;;;;40.00;36.50;;;;;;;;5075946;27;45526;-64
2022/01/27 14:14:01;;;;;;;;;43.00;33.75;;;;;;;;5086695;27;45458;-65
2022/01/27 14:16:27;;;;;;;;;34.75;32.00;;;;;;;;5075173;27;45542;-65
2022/01/27 14:18:52;;;;;;;;;37.75;33.00;;;;;;;;5094117;27;45408;-65
2022/01/27 14:21:25;;;;;;;;;35.50;31.00;;;;;;;;5075459;27;45611;-65
2022/01/27 14:24:08;;;;;;;;;34.25;31.00;;;;;;;;5078341;27;45811;-65
2022/01/27 14:26:39;;;;;;;;;38.50;33.75;;;;;;;;5077227;27;45334;-65
2022/01/27 14:29:07;;;;;;;;;39.25;35.00;;;;;;;;5094103;27;45947;-65
2022/01/27 14:31:33;;;;;;;;;43.25;37.75;;;;;;;;5089803;27;45577;-65
2022/01/27 14:33:58;;;;;;;;;41.00;34.75;;;;;;;;5076137;27;45765;-65
2022/01/27 14:36:24;;;;;;;;;36.25;34.25;;;;;;;;5093670;27;45580;-65
2022/01/27 14:38:49;;;;;;;;;38.75;35.00;;;;;;;;5094363;27;47244;-64
2022/01/27 14:41:15;;;;;;;;;33.25;32.25;;;;;;;;5094155;27;45864;-64
2022/01/27 14:43:41;;;;;;;;;42.50;36.00;;;;;;;;5075379;27;45523;-64
2022/01/27 14:46:07;;;;;;;;;36.25;31.50;;;;;;;;5086236;27;46123;-65
2022/01/27 14:48:34;;;;;;;;;31.25;29.25;;;;;;;;5093101;27;46155;-65
2022/01/27 14:51:00;;;;;;;;;40.50;36.50;;;;;;;;5073488;28;46484;-64
2022/01/27 14:53:25;;;;;;;;;36.50;25.25;;;;;;;;5079782;27;45530;-65
2022/01/27 14:55:50;;;;;;;;;32.75;29.75;;;;;;;;5082453;27;45892;-65
2022/01/27 14:58:16;;;;;;;;;38.00;31.25;;;;;;;;5082896;27;45789;-65
2022/01/27 15:00:41;;;;;;;;;40.75;37.25;;;;;;;;5065260;27;45497;-65
2022/01/27 15:03:06;;;;;;;;;35.75;33.50;;;;;;;;5086687;27;45441;-65
2022/01/27 15:05:32;;;;;;;;;43.50;34.50;;;;;;;;5090718;27;45484;-65
2022/01/27 15:07:57;;;;;;;;;39.50;35.00;;;;;;;;5091168;27;45555;-63
2022/01/27 15:10:23;;;;;;;;;36.75;29.75;;;;;;;;5091189;27;45476;-64
2022/01/27 15:12:50;;;;;;;;;34.75;33.25;;;;;;;;5092945;27;45641;-64
2022/01/27 15:20:57;;;;;;;;;40.50;35.25;;;;;;;;5063365;28;45452;-64
2022/01/27 15:23:27;;;;;;;;;42.75;38.00;;;;;;;;5047976;28;45524;-65
2022/01/27 15:25:52;;;;;;;;;38.50;35.00;;;;;;;;5040788;28;45744;-65